createdAt,value
2017-04-05T00:00:36.508Z,91.8
2017-04-05T00:01:38.312Z,91.4
2017-04-05T00:02:40.116Z,91.5
2017-04-05T00:03:41.906Z,91.3
2017-04-05T00:04:44.046Z,91.3
2017-04-05T00:05:45.851Z,91.6
2017-04-05T00:06:47.639Z,91.7
2017-04-05T00:07:49.447Z,91.5
2017-04-05T00:08:51.239Z,91.8
2017-04-05T00:09:53.042Z,91.9
2017-04-05T00:10:54.826Z,91.9
2017-04-05T00:11:56.635Z,92.2
2017-04-05T00:12:58.431Z,92.3
2017-04-05T00:14:00.224Z,92.5
2017-04-05T00:15:02.359Z,92.8
2017-04-05T00:16:04.143Z,92.7
2017-04-05T00:17:05.944Z,92.9
2017-04-05T00:18:07.742Z,93.3
2017-04-05T00:19:09.525Z,93.4
2017-04-05T00:20:11.327Z,93.7
2017-04-05T00:21:13.126Z,93.9
2017-04-05T00:22:14.935Z,93.7
2017-04-05T00:23:16.724Z,93.6
2017-04-05T00:24:18.517Z,93
2017-04-05T00:25:20.313Z,93.3
2017-04-05T00:26:22.441Z,93.4
2017-04-05T00:27:24.254Z,93.5
2017-04-05T00:28:26.049Z,93.4
2017-04-05T00:29:27.848Z,93.4
2017-04-05T00:30:29.652Z,93.1
2017-04-05T00:31:31.452Z,93.1
2017-04-05T00:32:33.244Z,93
2017-04-05T00:33:35.380Z,93.3
2017-04-05T00:34:37.185Z,93.3
2017-04-05T00:35:38.973Z,93.4
2017-04-05T00:36:40.783Z,93.9
2017-04-05T00:37:42.569Z,94.1
2017-04-05T00:38:44.360Z,94.3
2017-04-05T00:39:46.153Z,94.3
2017-04-05T00:40:47.952Z,94.2
2017-04-05T00:41:49.740Z,94.3
2017-04-05T00:42:51.526Z,94.1
2017-04-05T00:43:53.338Z,93.7
2017-04-05T00:44:55.127Z,93.6
2017-04-05T00:45:56.921Z,93.6
2017-04-05T00:46:58.730Z,93.8
2017-04-05T00:48:00.524Z,93.7
2017-04-05T00:49:02.313Z,93.5
2017-04-05T00:50:04.114Z,93.5
2017-04-05T00:51:05.937Z,93.7
2017-04-05T00:52:08.075Z,94.1
2017-04-05T00:53:09.885Z,94.2
2017-04-05T00:54:11.677Z,94
2017-04-05T00:55:14.161Z,94.2
2017-04-05T00:56:15.967Z,94.3
2017-04-05T00:57:17.749Z,94.3
2017-04-05T00:58:19.549Z,94.4
2017-04-05T00:59:21.338Z,94.8
2017-04-05T01:00:23.147Z,95.2
2017-04-05T01:01:24.936Z,95.7
2017-04-05T01:02:27.076Z,96.1
2017-04-05T01:03:28.883Z,96
2017-04-05T01:04:30.664Z,95.8
2017-04-05T01:05:32.456Z,96
2017-04-05T01:06:34.248Z,96.1
2017-04-05T01:07:36.041Z,96.2
2017-04-05T01:08:37.848Z,96.2
2017-04-05T01:09:39.643Z,96.1
2017-04-05T01:10:41.441Z,96
2017-04-05T01:11:43.223Z,96
2017-04-05T01:12:45.031Z,95.9
2017-04-05T01:13:46.827Z,96.1
2017-04-05T01:14:48.963Z,96
2017-04-05T01:15:50.766Z,96.1
2017-04-05T01:16:52.552Z,96.1
2017-04-05T01:17:54.356Z,96.1
2017-04-05T01:18:56.150Z,96.1
2017-04-05T01:19:57.937Z,96.2
2017-04-05T01:20:59.732Z,96.3
2017-04-05T01:22:01.526Z,96.4
2017-04-05T01:23:03.323Z,96.6
2017-04-05T01:24:05.117Z,96.7
2017-04-05T01:25:06.920Z,96.7
2017-04-05T01:26:09.065Z,96.7
2017-04-05T01:27:10.855Z,96.6
2017-04-05T01:28:12.655Z,96.7
2017-04-05T01:29:14.795Z,96.7
2017-04-05T01:30:16.584Z,96.7
2017-04-05T01:31:18.372Z,96.9
2017-04-05T01:32:20.170Z,97.2
2017-04-05T01:33:21.975Z,97.3
2017-04-05T01:34:23.770Z,97.3
2017-04-05T01:35:25.562Z,97.3
2017-04-05T01:36:27.353Z,97.4
2017-04-05T01:37:29.154Z,97.5
2017-04-05T01:38:30.937Z,97.6
2017-04-05T01:39:32.727Z,97.7
2017-04-05T01:40:34.516Z,97.8
2017-04-05T01:41:36.342Z,97.9
2017-04-05T01:42:38.129Z,97.8
2017-04-05T01:43:39.919Z,97.7
2017-04-05T01:44:42.056Z,97.6
2017-04-05T01:45:43.859Z,98
2017-04-05T01:46:45.652Z,98.1
2017-04-05T01:47:47.450Z,98.2
2017-04-05T01:48:49.225Z,98.3
2017-04-05T01:49:51.033Z,98.3
2017-04-05T01:50:52.832Z,98.6
2017-04-05T01:51:54.630Z,98.6
2017-04-05T01:52:56.410Z,98.5
2017-04-05T01:53:58.212Z,98.7
2017-04-05T01:55:00.003Z,98.5
2017-04-05T01:56:01.809Z,98.4
2017-04-05T01:57:03.907Z,98.4
2017-04-05T01:58:05.693Z,98.3
2017-04-05T01:59:07.491Z,98.7
2017-04-05T02:00:09.280Z,98.3
2017-04-05T02:01:11.075Z,98.6
2017-04-05T02:02:12.861Z,98.3
2017-04-05T02:03:14.660Z,98.6
2017-04-05T02:04:16.449Z,98.4
2017-04-05T02:05:18.602Z,98.3
2017-04-05T02:06:20.391Z,98
2017-04-05T02:07:22.200Z,98
2017-04-05T02:08:23.996Z,98.1
2017-04-05T02:09:25.824Z,98.3
2017-04-05T02:10:27.620Z,98.5
2017-04-05T02:11:29.411Z,98.5
2017-04-05T02:12:31.208Z,98.3
2017-04-05T02:13:33.009Z,97.8
2017-04-05T02:14:34.800Z,97.8
2017-04-05T02:15:36.599Z,97.8
2017-04-05T02:16:38.391Z,97.7
2017-04-05T02:17:40.174Z,97.4
2017-04-05T02:18:41.970Z,97.8
2017-04-05T02:19:43.765Z,97.3
2017-04-05T02:20:45.550Z,96.9
2017-04-05T02:21:47.336Z,96.6
2017-04-05T02:22:49.135Z,96.8
2017-04-05T02:23:51.260Z,96.6
2017-04-05T02:24:53.061Z,96.9
2017-04-05T02:25:54.844Z,97.2
2017-04-05T02:26:56.653Z,97
2017-04-05T02:27:58.440Z,97.4
2017-04-05T02:29:00.236Z,97.3
2017-04-05T02:30:02.028Z,97.3
2017-04-05T02:31:04.173Z,97.3
2017-04-05T02:32:05.962Z,98.4
2017-04-05T02:33:07.756Z,97.4
2017-04-05T02:34:09.552Z,97
2017-04-05T02:35:11.684Z,97.9
2017-04-05T02:36:13.491Z,97.6
2017-04-05T02:37:15.282Z,97.7
2017-04-05T02:38:17.086Z,97.6
2017-04-05T02:39:18.865Z,97.9
2017-04-05T02:40:20.678Z,97.2
2017-04-05T02:41:22.471Z,97.2
2017-04-05T02:42:24.257Z,97.3
2017-04-05T02:43:26.049Z,97.3
2017-04-05T02:44:27.838Z,98.2
2017-04-05T02:45:29.629Z,98.3
2017-04-05T02:46:31.422Z,98
2017-04-05T02:47:33.206Z,97.7
2017-04-05T02:48:35.007Z,97.4
2017-04-05T02:49:36.800Z,97.4
2017-04-05T02:50:38.623Z,97.9
2017-04-05T02:51:40.406Z,98.1
2017-04-05T02:52:42.405Z,97.7
2017-04-05T02:53:44.543Z,98
2017-04-05T02:54:46.342Z,98
2017-04-05T11:48:11.405Z,71.1
2017-04-05T11:49:14.469Z,70.4
2017-04-05T11:50:17.651Z,71
2017-04-05T11:51:35.062Z,70.4
2017-04-05T11:52:37.923Z,70.7
2017-04-05T11:53:40.334Z,70.2
2017-04-05T11:54:45.606Z,69.7
2017-04-05T11:55:50.631Z,70
2017-04-05T11:56:53.306Z,69.8
2017-04-05T11:57:55.977Z,70.2
2017-04-05T11:58:58.406Z,69.3
2017-04-05T12:00:01.255Z,69.8
2017-04-05T12:01:04.078Z,69.6
2017-04-05T12:02:07.033Z,69.8
2017-04-05T12:03:09.787Z,69.1
2017-04-05T12:04:12.154Z,69.9
2017-04-05T12:05:14.481Z,69.7
2017-04-05T12:06:16.837Z,69.1
2017-04-05T12:07:19.320Z,69.5
2017-04-05T12:08:22.107Z,69.1
2017-04-05T12:09:25.420Z,69.1
2017-04-05T12:10:28.290Z,69.6
2017-04-05T12:11:31.281Z,70.1
2017-04-05T12:12:34.607Z,69.6
2017-04-05T12:13:38.172Z,69.2
2017-04-05T12:14:40.136Z,69.9
2017-04-05T12:15:43.291Z,69.4
2017-04-05T12:16:45.969Z,69.2
2017-04-05T12:17:49.786Z,69.5
2017-04-05T12:18:53.106Z,69.4
2017-04-05T12:19:56.460Z,69.3
2017-04-05T12:20:59.458Z,69.2
2017-04-05T12:22:01.875Z,69.1
2017-04-05T12:23:04.745Z,69
2017-04-05T12:24:07.512Z,68.8
2017-04-05T12:25:09.897Z,69.1
2017-04-05T12:26:12.011Z,69.4
2017-04-05T12:27:14.783Z,69.7
2017-04-05T12:28:17.624Z,69.9
2017-04-05T12:29:20.617Z,69.9
2017-04-05T12:30:23.874Z,70
2017-04-05T12:31:25.851Z,69.9
2017-04-05T12:32:28.064Z,70.7
2017-04-05T12:33:30.582Z,69.9
2017-04-05T12:34:33.732Z,69.6
2017-04-05T12:35:35.984Z,69.7
2017-04-05T12:36:39.467Z,69.7
2017-04-05T12:37:42.644Z,70.1
2017-04-05T12:38:45.020Z,69.5
2017-04-05T12:39:48.304Z,69.2
2017-04-05T12:40:50.667Z,69.3
2017-04-05T12:41:52.910Z,68.7
2017-04-05T12:45:00.149Z,67.5
2017-04-05T12:46:03.362Z,66.5
2017-04-05T12:47:06.531Z,66
2017-04-05T12:48:08.782Z,66.5
2017-04-05T12:49:11.205Z,63.1
2017-04-05T12:50:14.183Z,63.2
2017-04-05T12:51:16.949Z,62.5
2017-04-05T12:52:19.105Z,61.6
2017-04-05T12:53:21.619Z,62.1
2017-04-05T12:54:24.140Z,62.4
2017-04-05T12:55:27.154Z,62.8
2017-04-05T12:56:30.744Z,63.8
2017-04-05T12:57:33.200Z,63.6
2017-04-05T12:58:35.879Z,63.6
2017-04-05T12:59:37.882Z,63.8
2017-04-05T13:00:41.752Z,63.7
2017-04-05T13:01:44.474Z,64
2017-04-05T13:02:46.628Z,63.4
2017-04-05T13:03:49.538Z,63.7
2017-04-05T13:04:52.418Z,63.3
2017-04-05T13:05:54.772Z,63.6
2017-04-05T13:06:57.308Z,63.9
2017-04-05T13:07:59.765Z,63.8
2017-04-05T13:09:03.868Z,63.9
2017-04-05T13:10:06.979Z,63.4
2017-04-05T13:11:09.265Z,63.8
2017-04-05T13:12:14.188Z,64.8
2017-04-05T13:13:17.329Z,64.7
2017-04-05T13:14:21.126Z,65
2017-04-05T13:15:24.451Z,64.8
2017-04-05T13:16:27.546Z,64.5
2017-04-05T13:17:30.852Z,63.9
2017-04-05T13:18:33.905Z,64.1
2017-04-05T13:19:38.604Z,63.9
2017-04-05T13:20:41.950Z,64.2
2017-04-05T13:21:43.902Z,62.3
2017-04-05T13:22:46.546Z,61.9
2017-04-05T13:23:49.341Z,62.4
2017-04-05T13:24:51.992Z,62.7
2017-04-05T13:25:54.577Z,61.8
2017-04-05T13:26:56.449Z,62.5
2017-04-05T13:27:59.697Z,62.3
2017-04-05T13:29:05.237Z,62.8
2017-04-05T13:30:08.023Z,62.3
2017-04-05T13:31:10.979Z,62.8
2017-04-05T13:32:13.961Z,63.7
2017-04-05T13:33:16.609Z,63.8
2017-04-05T13:34:19.088Z,63.3
2017-04-05T13:35:21.227Z,63.9
2017-04-05T13:36:23.403Z,63.3
2017-04-05T13:37:25.917Z,63.4
2017-04-05T13:38:27.747Z,64.2
2017-04-05T13:39:29.946Z,62.6
2017-04-05T13:40:32.737Z,63
2017-04-05T13:41:34.991Z,63.3
2017-04-05T13:42:36.938Z,63
2017-04-05T13:43:38.838Z,63.1
2017-04-05T13:44:40.892Z,63.6
2017-04-05T13:45:43.086Z,63.4
2017-04-05T13:46:45.473Z,63.8
2017-04-05T13:47:48.104Z,64.2
2017-04-05T13:48:50.059Z,63.7
2017-04-05T13:49:52.640Z,64.4
2017-04-05T13:50:54.728Z,64.5
2017-04-05T13:51:56.930Z,64.1
2017-04-05T13:52:59.615Z,64.6
2017-04-05T13:54:01.880Z,63.9
2017-04-05T13:55:04.082Z,64.5
2017-04-05T13:56:06.174Z,63.9
2017-04-05T13:57:09.040Z,64.3
2017-04-05T13:58:11.293Z,65.2
2017-04-05T13:59:13.503Z,65.8
2017-04-05T14:00:16.042Z,66.2
2017-04-05T14:01:18.474Z,67.5
2017-04-05T14:02:20.594Z,67.4
2017-04-05T14:03:23.657Z,69
2017-04-05T14:04:26.848Z,67.6
2017-04-05T14:05:29.736Z,68
2017-04-05T14:06:31.913Z,66.6
2017-04-05T14:07:34.388Z,66.2
2017-04-05T14:08:36.743Z,65.8
2017-04-05T14:09:39.028Z,66.1
2017-04-05T14:10:41.023Z,66.2
2017-04-05T14:11:43.651Z,65.5
2017-04-05T14:12:46.718Z,64.8
2017-04-05T14:13:49.991Z,63.4
2017-04-05T14:14:52.117Z,62.5
2017-04-05T14:15:54.237Z,62.8
2017-04-05T14:16:56.560Z,62.2
2017-04-05T14:17:58.608Z,61.8
2017-04-05T14:19:01.064Z,60.1
2017-04-05T14:20:03.275Z,60.5
2017-04-05T14:21:05.900Z,60.2
2017-04-05T14:22:08.048Z,59.8
2017-04-05T14:23:10.324Z,58.7
2017-04-05T14:24:12.746Z,58.3
2017-04-05T14:25:14.796Z,58.5
2017-04-05T14:26:17.150Z,58.5
2017-04-05T14:27:19.359Z,57.7
2017-04-05T14:28:21.186Z,57.9
2017-04-05T14:29:22.979Z,56.5
2017-04-05T14:30:24.834Z,55.6
2017-04-05T14:31:26.635Z,57
2017-04-05T14:32:28.481Z,56.9
2017-04-05T14:33:32.079Z,57.4
2017-04-05T14:34:34.820Z,58.6
2017-04-05T14:35:38.354Z,59.2
2017-04-05T14:36:41.321Z,58.9
2017-04-05T14:37:44.038Z,58.5
2017-04-05T14:38:46.856Z,59.3
2017-04-05T14:39:49.824Z,60.4
2017-04-05T14:40:52.058Z,60.7
2017-04-05T14:41:54.701Z,60.8
2017-04-05T14:42:57.796Z,61.1
2017-04-05T14:44:01.059Z,59.1
2017-04-05T14:45:03.519Z,59.4
2017-04-05T14:46:07.209Z,59
2017-04-05T14:47:11.040Z,58.6
2017-04-05T14:48:14.110Z,58.6
2017-04-05T14:49:16.714Z,57.9
2017-04-05T14:50:19.711Z,58
2017-04-05T14:51:22.952Z,57.9
2017-04-05T14:52:25.464Z,58.2
2017-04-05T14:53:28.456Z,58
2017-04-05T14:54:31.237Z,58.5
2017-04-05T14:55:35.146Z,58.7
2017-04-05T14:56:39.640Z,59.3
2017-04-05T14:57:44.486Z,57.7
2017-04-05T14:58:48.207Z,58.1
2017-04-05T14:59:50.991Z,58.5
2017-04-05T15:00:54.213Z,58.2
2017-04-05T15:01:56.347Z,58.6
2017-04-05T15:02:58.652Z,58.8
2017-04-05T15:04:01.275Z,58.6
2017-04-05T15:05:03.820Z,59.3
2017-04-05T15:06:05.898Z,58.9
2017-04-05T15:07:08.802Z,58.4
2017-04-05T15:08:14.905Z,58.9
2017-04-05T15:09:17.577Z,59.1
2017-04-05T15:10:20.431Z,60.6
2017-04-05T15:11:23.103Z,60.4
2017-04-05T15:12:25.760Z,60.5
2017-04-05T15:13:28.157Z,59.9
2017-04-05T15:14:30.757Z,60.1
2017-04-05T15:15:33.142Z,61.3
2017-04-05T15:16:35.229Z,59.6
2017-04-05T15:17:37.571Z,60
2017-04-05T15:18:39.448Z,59.7
2017-04-05T15:19:41.608Z,60.2
2017-04-05T15:20:43.675Z,61.2
2017-04-05T15:21:46.230Z,60.2
2017-04-05T15:22:48.835Z,59.6
2017-04-05T15:23:51.325Z,59.1
2017-04-05T15:24:53.434Z,59.4
2017-04-05T15:25:55.418Z,58.9
2017-04-05T15:26:57.273Z,58.9
2017-04-05T15:27:59.189Z,58.9
2017-04-05T15:29:02.074Z,59.3
2017-04-05T15:30:04.412Z,59.4
2017-04-05T15:31:06.218Z,58
2017-04-05T15:32:08.024Z,57.9
2017-04-05T15:33:09.819Z,58.3
2017-04-05T15:34:11.623Z,57.8
2017-04-05T15:35:13.440Z,58.9
2017-04-05T15:36:15.243Z,58.8
2017-04-05T15:37:17.047Z,58.1
2017-04-05T15:38:18.854Z,58.9
2017-04-05T15:39:20.655Z,58.7
2017-04-05T15:40:22.462Z,58.5
2017-04-05T15:41:24.295Z,58.9
2017-04-05T15:42:26.098Z,58.3
2017-04-05T15:43:27.903Z,58
2017-04-05T15:44:29.712Z,57.5
2017-04-05T15:45:31.515Z,57.1
2017-04-05T15:46:33.647Z,57.3
2017-04-05T15:47:35.791Z,58.4
2017-04-05T15:48:38.275Z,58.4
2017-04-05T15:49:40.081Z,57.4
2017-04-05T15:50:41.891Z,57
2017-04-05T15:51:43.685Z,57.2
2017-04-05T15:52:45.831Z,57.3
2017-04-05T15:53:47.632Z,56.9
2017-04-05T15:54:49.430Z,57.4
2017-04-05T15:55:51.235Z,58
2017-04-05T15:56:53.044Z,57.6
2017-04-05T15:57:54.865Z,57.8
2017-04-05T15:58:56.675Z,58.7
2017-04-05T15:59:58.501Z,58.7
2017-04-05T16:01:00.654Z,58.9
2017-04-05T16:02:02.801Z,59.3
2017-04-05T16:03:04.948Z,58.1
2017-04-05T16:04:06.756Z,58.6
2017-04-05T16:05:08.559Z,58.6
2017-04-05T16:06:10.364Z,58.3
2017-04-05T16:07:12.166Z,57.8
2017-04-05T16:08:13.961Z,57.8
2017-04-05T16:09:15.760Z,58.6
2017-04-05T16:10:17.591Z,58.9
2017-04-05T16:11:19.396Z,58.8
2017-04-05T16:12:21.217Z,59.4
2017-04-05T16:13:23.021Z,58.8
2017-04-05T16:14:24.824Z,57.9
2017-04-05T16:15:26.625Z,58.6
2017-04-05T16:16:28.438Z,58.5
2017-04-05T16:17:30.244Z,58.4
2017-04-05T16:18:32.072Z,58.7
2017-04-05T16:19:34.206Z,59
2017-04-05T16:20:36.030Z,58.1
2017-04-05T16:21:37.831Z,58.8
2017-04-05T16:22:39.972Z,58.9
2017-04-05T16:23:41.775Z,59.2
2017-04-05T16:24:43.574Z,60.1
2017-04-05T16:25:45.377Z,60.5
2017-04-05T16:26:47.180Z,59.6
2017-04-05T16:27:48.975Z,60.3
2017-04-05T16:28:51.129Z,60.4
2017-04-05T16:29:52.939Z,60.1
2017-04-05T16:30:54.743Z,60.3
2017-04-05T16:31:56.549Z,60.6
2017-04-05T16:32:58.346Z,60.9
2017-04-05T16:34:00.155Z,61.7
2017-04-05T16:35:01.959Z,61.8
2017-04-05T16:36:03.754Z,61.7
2017-04-05T16:37:05.554Z,61.7
2017-04-05T16:38:07.372Z,61.7
2017-04-05T16:39:09.168Z,62.4
2017-04-05T16:40:11.308Z,61.3
2017-04-05T16:41:13.107Z,61.4
2017-04-05T16:42:14.915Z,60.8
2017-04-05T16:43:16.714Z,61.1
2017-04-05T16:44:18.517Z,61.5
2017-04-05T16:45:20.654Z,60.8
2017-04-05T16:46:22.456Z,61.6
2017-04-05T16:47:24.267Z,61.8
2017-04-05T16:48:26.068Z,62
2017-04-05T16:49:27.858Z,62.2
2017-04-05T16:50:29.659Z,62.4
2017-04-05T16:51:31.460Z,62
2017-04-05T16:52:33.264Z,61.8
2017-04-05T16:53:35.063Z,62.1
2017-04-05T16:54:36.873Z,62.4
2017-04-05T16:55:38.676Z,62.3
2017-04-05T16:56:40.474Z,62.7
2017-04-05T16:57:42.616Z,63.5
2017-04-05T16:58:44.844Z,63.1
2017-04-05T16:59:46.656Z,63.1
2017-04-05T17:00:48.460Z,63.7
2017-04-05T17:01:50.268Z,64.5
2017-04-05T17:02:52.073Z,65.1
2017-04-05T17:03:53.876Z,66.8
2017-04-05T17:04:55.708Z,68.8
2017-04-05T17:05:57.501Z,68.9
2017-04-05T17:06:59.306Z,69.3
2017-04-05T17:08:01.444Z,69.5
2017-04-05T17:09:03.242Z,68
2017-04-05T17:10:05.034Z,66.6
2017-04-05T17:11:06.847Z,67.2
2017-04-05T17:12:08.646Z,68
2017-04-05T17:13:10.454Z,67.6
2017-04-05T17:14:12.240Z,67.7
2017-04-05T17:15:14.054Z,67.8
2017-04-05T17:16:15.855Z,67.4
2017-04-05T17:17:17.662Z,67.9
2017-04-05T17:18:19.796Z,67.8
2017-04-05T17:19:21.595Z,67.6
2017-04-05T17:20:23.386Z,67.9
2017-04-05T17:21:25.537Z,68
2017-04-05T17:22:27.334Z,68.4
2017-04-05T17:23:29.476Z,68.8
2017-04-05T17:24:31.290Z,69.4
2017-04-05T17:25:33.099Z,69.8
2017-04-05T17:26:34.897Z,70.1
2017-04-05T17:27:36.701Z,70.7
2017-04-05T17:28:38.506Z,71
2017-04-05T17:29:40.305Z,71.5
2017-04-05T17:30:42.098Z,71.8
2017-04-05T17:31:43.885Z,71.9
2017-04-05T17:32:45.682Z,72.3
2017-04-05T17:33:47.487Z,72.9
2017-04-05T17:34:49.283Z,73.4
2017-04-05T17:35:51.415Z,73.9
2017-04-05T17:36:53.226Z,74.5
2017-04-05T17:37:55.027Z,74.3
2017-04-05T17:38:57.166Z,74.4
2017-04-05T17:39:58.962Z,74.9
2017-04-05T17:41:00.764Z,75.3
2017-04-05T17:42:02.893Z,75.6
2017-04-05T17:43:04.724Z,76.4
2017-04-05T17:44:06.517Z,76.4
2017-04-05T17:45:08.313Z,76.8
2017-04-05T17:46:10.109Z,76.9
2017-04-05T17:47:11.917Z,77.2
2017-04-05T17:48:13.705Z,77.6
2017-04-05T17:49:15.501Z,77.6
2017-04-05T17:50:17.287Z,77.8
2017-04-05T17:51:19.770Z,78
2017-04-05T17:52:21.573Z,78.2
2017-04-05T17:53:23.369Z,78.4
2017-04-05T17:54:25.170Z,78.7
2017-04-05T17:55:26.966Z,78.8
2017-04-05T17:56:28.764Z,79
2017-04-05T17:57:30.557Z,79
2017-04-05T17:58:32.367Z,79.3
2017-04-05T17:59:34.170Z,79.5
2017-04-05T18:00:35.968Z,79.3
2017-04-05T18:01:37.765Z,79.5
2017-04-05T18:02:39.568Z,79.9
2017-04-05T18:03:41.378Z,80
2017-04-05T18:04:43.166Z,80.2
2017-04-05T18:05:44.966Z,80.7
2017-04-05T18:06:46.773Z,80.5
2017-04-05T18:07:48.585Z,80.4
2017-04-05T18:08:50.399Z,80.7
2017-04-05T18:09:52.531Z,80.7
2017-04-05T18:10:55.002Z,80.1
2017-04-05T18:11:56.820Z,80.2
2017-04-05T18:12:58.950Z,80.4
2017-04-05T18:14:00.750Z,80.8
2017-04-05T18:15:02.543Z,80.4
2017-04-05T18:16:04.338Z,80.7
2017-04-05T18:17:06.135Z,81.1
2017-04-05T18:18:08.265Z,81.1
2017-04-05T18:19:10.058Z,81.2
2017-04-05T18:20:11.863Z,80.9
2017-04-05T18:21:13.986Z,80.6
2017-04-05T18:22:15.796Z,81
2017-04-05T18:23:17.598Z,81.3
2017-04-05T18:24:19.406Z,81.5
2017-04-05T18:25:21.188Z,81.2
2017-04-05T18:26:22.994Z,80.8
2017-04-05T18:27:24.795Z,80.6
2017-04-05T18:28:26.592Z,80.6
2017-04-05T18:29:28.399Z,80.9
2017-04-05T18:30:30.188Z,81.1
2017-04-05T18:31:31.986Z,80.9
2017-04-05T18:32:34.146Z,80.8
2017-04-05T18:33:35.953Z,80.7
2017-04-05T18:34:37.751Z,80.6
2017-04-05T18:35:39.892Z,80.8
2017-04-05T18:36:41.671Z,81.1
2017-04-05T18:37:43.811Z,81.3
2017-04-05T18:38:45.612Z,81.5
2017-04-05T18:39:47.403Z,81.6
2017-04-05T18:40:49.209Z,81.6
2017-04-05T18:41:51.002Z,81.5
2017-04-05T18:42:53.148Z,81.6
2017-04-05T18:43:54.951Z,82
2017-04-05T18:44:56.730Z,81.9
2017-04-05T18:45:58.525Z,81.8
2017-04-05T18:47:00.318Z,81.9
2017-04-05T18:48:02.115Z,81.9
2017-04-05T18:49:03.899Z,82.1
2017-04-05T18:50:06.032Z,82
2017-04-05T18:51:07.823Z,81.9
2017-04-05T18:52:09.613Z,82.3
2017-04-05T18:53:11.401Z,82.2
2017-04-05T18:54:13.187Z,82
2017-04-05T18:55:14.987Z,82.4
2017-04-05T18:56:16.788Z,81.6
2017-04-05T18:57:18.584Z,81.7
2017-04-05T18:58:20.365Z,81.7
2017-04-05T18:59:22.163Z,82
2017-04-05T19:00:24.300Z,82.3
2017-04-05T19:01:26.093Z,82.8
2017-04-05T19:02:27.892Z,83.6
2017-04-05T19:03:29.706Z,84
2017-04-05T19:04:31.500Z,84.9
2017-04-05T19:05:33.299Z,84.7
2017-04-05T19:06:35.082Z,84.6
2017-04-05T19:07:36.883Z,86.1
2017-04-05T19:08:38.680Z,85.3
2017-04-05T19:09:40.478Z,84.2
2017-04-05T19:10:42.599Z,84.2
2017-04-05T19:11:44.395Z,85.3
2017-04-05T19:12:46.183Z,84.8
2017-04-05T19:13:47.978Z,84.5
2017-04-05T19:14:49.780Z,84
2017-04-05T19:15:51.911Z,83.8
2017-04-05T19:16:53.707Z,83.8
2017-04-05T19:17:55.512Z,83.6
2017-04-05T19:18:57.304Z,83.8
2017-04-05T19:19:59.093Z,83.6
2017-04-05T19:21:00.894Z,83.1
2017-04-05T19:22:02.684Z,83.3
2017-04-05T19:23:04.480Z,83.1
2017-04-05T19:24:06.274Z,82.6
2017-04-05T19:25:08.405Z,83.3
2017-04-05T19:26:10.185Z,83.5
2017-04-05T19:27:11.978Z,84
2017-04-05T19:28:13.768Z,84.1
2017-04-05T19:29:15.560Z,83.5
2017-04-05T19:30:17.354Z,83.5
2017-04-05T19:31:19.177Z,83.5
2017-04-05T19:32:21.292Z,83.8
2017-04-05T19:33:23.089Z,83.6
2017-04-05T19:34:24.875Z,83.8
2017-04-05T19:35:27.011Z,83.5
2017-04-05T19:36:28.814Z,83.7
2017-04-05T19:37:30.606Z,83.8
2017-04-05T19:38:32.396Z,83.6
2017-04-05T19:39:34.195Z,84
2017-04-05T19:40:36.328Z,83.9
2017-04-05T19:41:38.120Z,83.9
2017-04-05T19:42:39.920Z,84.2
2017-04-05T19:43:41.732Z,84.1
2017-04-05T19:44:43.533Z,84.6
2017-04-05T19:45:45.329Z,84.6
2017-04-05T19:46:47.127Z,84.6
2017-04-05T19:47:48.916Z,84.8
2017-04-05T19:48:50.717Z,84.4
2017-04-05T19:49:52.507Z,84.2
2017-04-05T19:50:54.644Z,84
2017-04-05T19:51:56.777Z,83.8
2017-04-05T19:52:58.562Z,83.8
2017-04-05T19:54:00.346Z,83.8
2017-04-05T19:55:02.132Z,83.9
2017-04-05T19:56:03.934Z,83.8
2017-04-05T19:57:05.767Z,83.8
2017-04-05T19:58:07.572Z,84.4
2017-04-05T19:59:09.351Z,84.9
2017-04-05T20:00:11.152Z,86
2017-04-05T20:01:12.940Z,87
2017-04-05T20:02:14.736Z,87.3
2017-04-05T20:03:16.520Z,87.3
2017-04-05T20:04:18.310Z,88.2
2017-04-05T20:05:20.103Z,89.5
2017-04-05T20:06:21.898Z,89.8
2017-04-05T20:07:23.677Z,90
2017-04-05T20:08:25.808Z,90.6
2017-04-05T20:09:27.603Z,90.7
2017-04-05T20:10:29.413Z,91.1
2017-04-05T20:11:31.222Z,91.4
2017-04-05T20:12:33.030Z,90.4
2017-04-05T20:13:35.517Z,90.9
2017-04-05T20:14:37.332Z,90.1
2017-04-05T20:15:39.126Z,90.9
2017-04-05T20:16:40.918Z,92.3
2017-04-05T20:17:42.716Z,90.7
2017-04-05T20:18:44.510Z,89.7
2017-04-05T20:19:46.306Z,89.4
2017-04-05T20:20:48.086Z,89.8
2017-04-05T20:21:49.885Z,89.5
2017-04-05T20:22:51.693Z,89.1
2017-04-05T20:23:53.486Z,87.9
2017-04-05T20:24:55.270Z,87.7
2017-04-05T20:25:57.410Z,87.9
2017-04-05T20:26:59.205Z,88.2
2017-04-05T20:28:01.005Z,87.7
2017-04-05T20:29:02.782Z,88.4
2017-04-05T20:30:04.579Z,88.8
2017-04-05T20:31:06.367Z,87.1
2017-04-05T20:32:08.168Z,87.4
2017-04-05T20:33:09.959Z,87.3
2017-04-05T20:34:12.080Z,87.5
2017-04-05T20:35:13.876Z,86.9
2017-04-05T20:36:15.668Z,86.6
2017-04-05T20:37:17.462Z,86.4
2017-04-05T20:38:19.590Z,86.5
2017-04-05T20:39:21.381Z,86.6
2017-04-05T20:40:23.175Z,87.8
2017-04-05T20:41:24.974Z,87
2017-04-05T20:42:26.764Z,87.1
2017-04-05T20:43:28.551Z,87.4
2017-04-05T20:44:30.691Z,88.6
2017-04-05T20:45:32.494Z,89
2017-04-05T20:46:34.283Z,90.4
2017-04-05T20:47:36.079Z,91.4
2017-04-05T20:48:37.861Z,90.7
2017-04-05T20:49:39.661Z,91.5
2017-04-05T20:50:41.452Z,92
2017-04-05T20:51:43.241Z,93
2017-04-05T20:52:45.365Z,92.2
2017-04-05T20:53:47.170Z,92.5
2017-04-05T20:54:49.309Z,92.9
2017-04-05T20:55:51.442Z,93.1
2017-04-05T20:56:53.229Z,94.1
2017-04-05T20:57:55.021Z,94.5
2017-04-05T20:58:56.820Z,93.4
2017-04-05T20:59:58.620Z,94.3
2017-04-05T21:01:00.417Z,93.5
2017-04-05T21:02:02.212Z,93.2
2017-04-05T21:03:04.003Z,93.5
2017-04-05T21:04:06.476Z,94.2
2017-04-05T21:05:08.255Z,94.2
2017-04-05T21:06:10.050Z,94.9
2017-04-05T21:07:11.839Z,93.9
2017-04-05T21:08:13.639Z,93.3
2017-04-05T21:09:15.427Z,93.1
2017-04-05T21:10:17.213Z,92.8
2017-04-05T21:11:19.002Z,92.8
2017-04-05T21:12:20.794Z,93
2017-04-05T21:13:22.920Z,92.1
2017-04-05T21:14:24.710Z,93
2017-04-05T21:15:26.500Z,93.2
2017-04-05T21:16:28.304Z,93.4
2017-04-05T21:17:30.099Z,92.2
2017-04-05T21:18:31.891Z,91.2
2017-04-05T21:19:33.680Z,91.6
2017-04-05T21:20:35.467Z,90.8
2017-04-05T21:21:37.270Z,90.4
2017-04-05T21:22:39.061Z,90.9
2017-04-05T21:23:40.848Z,91.3
2017-04-05T21:24:42.647Z,90.6
2017-04-05T21:25:44.473Z,90
2017-04-05T21:26:46.259Z,90.1
2017-04-05T21:27:48.055Z,89.8
2017-04-05T21:28:49.852Z,90.4
2017-04-05T21:29:51.637Z,89.8
2017-04-05T21:30:53.432Z,90.5
2017-04-05T21:31:55.488Z,90.7
2017-04-05T21:32:58.973Z,90.9
2017-04-05T21:34:02.663Z,90.5
2017-04-05T21:35:05.032Z,89.1
2017-04-05T21:36:07.111Z,89.5
2017-04-05T21:37:09.027Z,88.4
2017-04-05T21:38:11.158Z,88.7
2017-04-05T21:39:13.391Z,88.6
2017-04-05T21:40:15.503Z,88.8
2017-04-05T21:41:17.426Z,89.3
2017-04-05T21:42:19.277Z,89.2
2017-04-05T21:43:21.768Z,89.5
2017-04-05T21:44:27.409Z,89.7
2017-04-05T21:45:29.860Z,88.9
2017-04-05T21:46:32.308Z,88.6
2017-04-05T21:47:35.638Z,88.4
2017-04-05T21:48:38.087Z,89.2
2017-04-05T21:49:40.658Z,89.3
2017-04-05T21:50:43.758Z,89
2017-04-05T21:51:46.292Z,90.6
2017-04-05T21:52:48.550Z,90.1
2017-04-05T21:53:51.228Z,89.8
2017-04-05T21:54:53.684Z,89.2
2017-04-05T21:55:55.907Z,88.6
2017-04-05T21:56:58.127Z,88
2017-04-05T21:58:00.543Z,88.8
2017-04-05T21:59:05.949Z,88.6
2017-04-05T22:00:08.652Z,88.4
2017-04-05T22:01:13.570Z,87.7
2017-04-05T22:02:16.197Z,88.4
2017-04-05T22:03:22.686Z,88.5
2017-04-05T22:04:25.351Z,89
2017-04-05T22:05:27.980Z,87.9
2017-04-05T22:06:30.683Z,88.9
2017-04-05T22:07:34.497Z,88.3
2017-04-05T22:08:37.163Z,88.1
2017-04-05T22:09:39.508Z,88.2
2017-04-05T22:10:42.336Z,89.2
2017-04-05T22:11:44.746Z,88.8
2017-04-05T22:12:47.031Z,89.6
2017-04-05T22:13:51.322Z,88.4
2017-04-05T22:14:54.079Z,89.3
2017-04-05T22:15:56.341Z,90.2
2017-04-05T22:16:58.531Z,90.6
2017-04-05T22:18:01.040Z,91.2
2017-04-05T22:19:02.981Z,92.1
2017-04-05T22:20:05.209Z,91.7
2017-04-05T22:21:07.483Z,92.2
2017-04-05T22:22:11.820Z,91.9
2017-04-05T22:23:13.714Z,91
2017-04-05T22:24:15.613Z,90.9
2017-04-05T22:25:17.828Z,90.6
2017-04-05T22:26:19.983Z,90.4
2017-04-05T22:27:21.851Z,90.8
2017-04-05T22:28:23.980Z,90.9
2017-04-05T22:29:26.208Z,90.1
2017-04-05T22:30:27.999Z,89.7
2017-04-05T22:31:29.872Z,89.5
2017-04-05T22:32:31.673Z,90.2
2017-04-05T22:33:33.857Z,89.8
2017-04-05T22:34:35.988Z,89.8
2017-04-05T22:35:37.781Z,90.4
2017-04-05T22:36:39.569Z,91
2017-04-05T22:37:41.365Z,90.6
2017-04-05T22:38:43.153Z,89.4
2017-04-05T22:39:44.932Z,88.9
2017-04-05T22:40:46.746Z,88.8
2017-04-05T22:41:48.536Z,88.9
2017-04-05T22:42:50.373Z,89
2017-04-05T22:43:52.163Z,89
2017-04-05T22:44:54.410Z,89
2017-04-05T22:45:56.200Z,88.8
2017-04-05T22:46:58.081Z,88.7